METAR Data
IDs: Format: Raw Decoded Include TAF

Data at: 2110 UTC 01 Dec 2021

LICB 012050Z AUTO VRB01KT 9999 SCT025/// BKN056/// 10/09 Q1019